sensor_id;sensor_type;location;lat;lon;timestamp;temperature;humidity
43143;DHT22;28750;59.842;17.584;2023-02-03T00:02:01;-8.10;1.00
43143;DHT22;28750;59.842;17.584;2023-02-03T00:04:28;-8.10;1.00
43143;DHT22;28750;59.842;17.584;2023-02-03T00:06:55;-8.00;1.00
43143;DHT22;28750;59.842;17.584;2023-02-03T00:09:22;-8.10;1.00
43143;DHT22;28750;59.842;17.584;2023-02-03T00:11:49;-8.20;99.90
43143;DHT22;28750;59.842;17.584;2023-02-03T00:14:16;-8.20;99.90
43143;DHT22;28750;59.842;17.584;2023-02-03T00:16:43;-8.10;1.00
43143;DHT22;28750;59.842;17.584;2023-02-03T00:19:10;-8.20;1.00
43143;DHT22;28750;59.842;17.584;2023-02-03T00:21:36;-8.10;1.00
43143;DHT22;28750;59.842;17.584;2023-02-03T00:24:04;-7.90;1.00
43143;DHT22;28750;59.842;17.584;2023-02-03T00:26:31;-8.00;1.00
43143;DHT22;28750;59.842;17.584;2023-02-03T00:28:58;-8.10;99.90
43143;DHT22;28750;59.842;17.584;2023-02-03T00:31:25;-8.20;99.90
43143;DHT22;28750;59.842;17.584;2023-02-03T00:33:54;-8.20;99.90
43143;DHT22;28750;59.842;17.584;2023-02-03T00:36:22;-8.30;99.90
43143;DHT22;28750;59.842;17.584;2023-02-03T00:38:49;-8.20;99.90
43143;DHT22;28750;59.842;17.584;2023-02-03T00:41:17;-8.30;99.90
43143;DHT22;28750;59.842;17.584;2023-02-03T00:43:44;-8.30;99.90
43143;DHT22;28750;59.842;17.584;2023-02-03T00:46:12;-8.30;99.90
43143;DHT22;28750;59.842;17.584;2023-02-03T00:48:39;-8.40;99.90
43143;DHT22;28750;59.842;17.584;2023-02-03T00:51:06;-8.30;1.00
43143;DHT22;28750;59.842;17.584;2023-02-03T00:53:33;-8.10;1.00
43143;DHT22;28750;59.842;17.584;2023-02-03T00:56:00;-8.10;12.90
43143;DHT22;28750;59.842;17.584;2023-02-03T00:58:27;-8.10;1.00
43143;DHT22;28750;59.842;17.584;2023-02-03T01:00:55;-8.20;1.00
43143;DHT22;28750;59.842;17.584;2023-02-03T01:03:22;-8.30;99.90
43143;DHT22;28750;59.842;17.584;2023-02-03T01:05:49;-8.20;99.90
43143;DHT22;28750;59.842;17.584;2023-02-03T01:08:16;-8.20;99.90
43143;DHT22;28750;59.842;17.584;2023-02-03T01:10:42;-8.40;99.90
43143;DHT22;28750;59.842;17.584;2023-02-03T01:13:10;-8.30;99.90
43143;DHT22;28750;59.842;17.584;2023-02-03T01:15:36;-8.30;99.90
43143;DHT22;28750;59.842;17.584;2023-02-03T01:18:03;-8.30;99.90
43143;DHT22;28750;59.842;17.584;2023-02-03T01:20:30;-8.50;99.90
43143;DHT22;28750;59.842;17.584;2023-02-03T01:22:57;-8.60;1.00
43143;DHT22;28750;59.842;17.584;2023-02-03T01:25:24;-8.30;1.00
43143;DHT22;28750;59.842;17.584;2023-02-03T01:27:51;-8.20;1.00
43143;DHT22;28750;59.842;17.584;2023-02-03T01:30:18;-8.00;33.60
43143;DHT22;28750;59.842;17.584;2023-02-03T01:32:45;-8.10;1.00
43143;DHT22;28750;59.842;17.584;2023-02-03T01:35:12;-8.20;1.00
43143;DHT22;28750;59.842;17.584;2023-02-03T01:37:39;-8.20;1.00
43143;DHT22;28750;59.842;17.584;2023-02-03T01:40:06;-8.30;99.90
43143;DHT22;28750;59.842;17.584;2023-02-03T01:42:33;-8.40;99.90
43143;DHT22;28750;59.842;17.584;2023-02-03T01:45:00;-8.40;99.90
43143;DHT22;28750;59.842;17.584;2023-02-03T01:47:33;-8.50;99.90
43143;DHT22;28750;59.842;17.584;2023-02-03T01:50:17;-8.50;99.90
43143;DHT22;28750;59.842;17.584;2023-02-03T01:52:51;-8.50;99.90
43143;DHT22;28750;59.842;17.584;2023-02-03T01:55:22;-8.60;99.90
43143;DHT22;28750;59.842;17.584;2023-02-03T01:57:55;-8.50;99.90
43143;DHT22;28750;59.842;17.584;2023-02-03T02:00:23;-8.60;99.90
43143;DHT22;28750;59.842;17.584;2023-02-03T02:02:51;-8.60;99.90
43143;DHT22;28750;59.842;17.584;2023-02-03T02:05:41;-8.60;99.90
43143;DHT22;28750;59.842;17.584;2023-02-03T02:08:12;-8.60;99.90
43143;DHT22;28750;59.842;17.584;2023-02-03T02:10:39;-8.50;99.90
43143;DHT22;28750;59.842;17.584;2023-02-03T02:13:07;-8.60;99.90
43143;DHT22;28750;59.842;17.584;2023-02-03T02:15:42;-8.70;99.90
43143;DHT22;28750;59.842;17.584;2023-02-03T02:24:09;-8.70;99.90
43143;DHT22;28750;59.842;17.584;2023-02-03T02:27:22;-8.70;71.30
43143;DHT22;28750;59.842;17.584;2023-02-03T02:43:03;-9.00;1.00
43143;DHT22;28750;59.842;17.584;2023-02-03T02:50:53;-8.80;1.00
43143;DHT22;28750;59.842;17.584;2023-02-03T02:53:24;-8.80;1.00
43143;DHT22;28750;59.842;17.584;2023-02-03T02:55:52;-8.70;1.00
43143;DHT22;28750;59.842;17.584;2023-02-03T02:58:22;-8.90;1.00
43143;DHT22;28750;59.842;17.584;2023-02-03T03:00:50;-8.90;1.00
43143;DHT22;28750;59.842;17.584;2023-02-03T03:03:20;-9.00;99.90
43143;DHT22;28750;59.842;17.584;2023-02-03T03:05:55;-8.90;1.00
43143;DHT22;28750;59.842;17.584;2023-02-03T03:08:30;-9.00;1.00
43143;DHT22;28750;59.842;17.584;2023-02-03T03:10:59;-8.90;1.00
43143;DHT22;28750;59.842;17.584;2023-02-03T03:13:31;-8.90;1.00
43143;DHT22;28750;59.842;17.584;2023-02-03T03:16:01;-9.00;99.90
43143;DHT22;28750;59.842;17.584;2023-02-03T03:18:33;-9.00;99.90
43143;DHT22;28750;59.842;17.584;2023-02-03T03:21:04;-9.10;99.90
43143;DHT22;28750;59.842;17.584;2023-02-03T03:23:37;-9.10;99.90
43143;DHT22;28750;59.842;17.584;2023-02-03T03:26:17;-9.20;99.90
43143;DHT22;28750;59.842;17.584;2023-02-03T03:28:53;-9.20;99.90
43143;DHT22;28750;59.842;17.584;2023-02-03T03:31:23;-9.20;99.90
43143;DHT22;28750;59.842;17.584;2023-02-03T03:33:50;-9.20;99.90
43143;DHT22;28750;59.842;17.584;2023-02-03T03:41:35;-9.20;99.90
43143;DHT22;28750;59.842;17.584;2023-02-03T03:44:08;-9.30;99.90
43143;DHT22;28750;59.842;17.584;2023-02-03T03:47:08;-9.20;99.90
43143;DHT22;28750;59.842;17.584;2023-02-03T03:49:32;-9.30;99.90
43143;DHT22;28750;59.842;17.584;2023-02-03T03:52:05;-9.30;99.90
43143;DHT22;28750;59.842;17.584;2023-02-03T03:54:34;-9.20;99.90
43143;DHT22;28750;59.842;17.584;2023-02-03T03:57:10;-9.30;99.90
43143;DHT22;28750;59.842;17.584;2023-02-03T03:59:42;-9.20;99.90
43143;DHT22;28750;59.842;17.584;2023-02-03T04:02:12;-9.20;99.90
43143;DHT22;28750;59.842;17.584;2023-02-03T04:04:40;-9.20;99.90
43143;DHT22;28750;59.842;17.584;2023-02-03T04:07:08;-9.20;99.90
43143;DHT22;28750;59.842;17.584;2023-02-03T04:09:35;-9.30;99.90
43143;DHT22;28750;59.842;17.584;2023-02-03T04:12:03;-9.40;99.90
43143;DHT22;28750;59.842;17.584;2023-02-03T04:14:35;-9.40;99.90
43143;DHT22;28750;59.842;17.584;2023-02-03T04:17:03;-9.40;99.90
43143;DHT22;28750;59.842;17.584;2023-02-03T04:19:30;-9.30;99.90
43143;DHT22;28750;59.842;17.584;2023-02-03T04:21:57;-9.40;99.90
43143;DHT22;28750;59.842;17.584;2023-02-03T04:24:24;-9.20;99.90
43143;DHT22;28750;59.842;17.584;2023-02-03T04:26:51;-9.20;99.90
43143;DHT22;28750;59.842;17.584;2023-02-03T04:29:18;-9.10;99.90
43143;DHT22;28750;59.842;17.584;2023-02-03T04:31:45;-9.10;99.90
43143;DHT22;28750;59.842;17.584;2023-02-03T04:34:12;-9.20;99.90
43143;DHT22;28750;59.842;17.584;2023-02-03T04:36:39;-9.30;99.90
43143;DHT22;28750;59.842;17.584;2023-02-03T04:39:05;-9.50;99.90
43143;DHT22;28750;59.842;17.584;2023-02-03T04:41:32;-9.40;99.90
43143;DHT22;28750;59.842;17.584;2023-02-03T04:43:59;-9.40;99.90
43143;DHT22;28750;59.842;17.584;2023-02-03T04:46:26;-9.40;99.90
43143;DHT22;28750;59.842;17.584;2023-02-03T04:48:53;-9.30;99.90
43143;DHT22;28750;59.842;17.584;2023-02-03T04:51:20;-9.30;99.90
43143;DHT22;28750;59.842;17.584;2023-02-03T04:53:47;-9.40;99.90
43143;DHT22;28750;59.842;17.584;2023-02-03T04:56:14;-9.40;99.90
43143;DHT22;28750;59.842;17.584;2023-02-03T04:58:41;-9.70;96.50
43143;DHT22;28750;59.842;17.584;2023-02-03T05:01:08;-9.60;99.90
43143;DHT22;28750;59.842;17.584;2023-02-03T05:03:35;-9.40;99.90
43143;DHT22;28750;59.842;17.584;2023-02-03T05:06:03;-9.30;99.90
43143;DHT22;28750;59.842;17.584;2023-02-03T05:08:30;-9.40;99.90
43143;DHT22;28750;59.842;17.584;2023-02-03T05:10:57;-9.30;99.90
43143;DHT22;28750;59.842;17.584;2023-02-03T05:13:24;-9.20;99.90
43143;DHT22;28750;59.842;17.584;2023-02-03T05:15:51;-9.30;99.90
43143;DHT22;28750;59.842;17.584;2023-02-03T05:18:18;-9.30;99.90
43143;DHT22;28750;59.842;17.584;2023-02-03T05:20:45;-9.40;99.90
43143;DHT22;28750;59.842;17.584;2023-02-03T05:23:12;-9.40;99.90
43143;DHT22;28750;59.842;17.584;2023-02-03T05:25:38;-9.40;99.90
43143;DHT22;28750;59.842;17.584;2023-02-03T05:28:05;-9.40;99.90
43143;DHT22;28750;59.842;17.584;2023-02-03T05:30:32;-9.40;99.00
43143;DHT22;28750;59.842;17.584;2023-02-03T05:32:59;-9.50;96.20
43143;DHT22;28750;59.842;17.584;2023-02-03T05:35:26;-9.50;99.90
43143;DHT22;28750;59.842;17.584;2023-02-03T05:37:53;-9.50;86.30
43143;DHT22;28750;59.842;17.584;2023-02-03T05:40:20;-9.50;99.50
43143;DHT22;28750;59.842;17.584;2023-02-03T05:43:04;-9.50;98.10
43143;DHT22;28750;59.842;17.584;2023-02-03T05:45:32;-9.50;91.30
43143;DHT22;28750;59.842;17.584;2023-02-03T05:47:59;-9.40;99.90
43143;DHT22;28750;59.842;17.584;2023-02-03T05:50:27;-9.40;99.90
43143;DHT22;28750;59.842;17.584;2023-02-03T05:52:58;-9.20;99.90
43143;DHT22;28750;59.842;17.584;2023-02-03T05:55:27;-9.20;99.90
43143;DHT22;28750;59.842;17.584;2023-02-03T05:57:54;-9.10;99.90
43143;DHT22;28750;59.842;17.584;2023-02-03T06:00:22;-9.20;99.90
43143;DHT22;28750;59.842;17.584;2023-02-03T06:02:53;-9.20;99.90
43143;DHT22;28750;59.842;17.584;2023-02-03T06:05:21;-9.10;99.90
43143;DHT22;28750;59.842;17.584;2023-02-03T06:07:49;-9.10;99.90
43143;DHT22;28750;59.842;17.584;2023-02-03T06:10:16;-9.00;99.90
43143;DHT22;28750;59.842;17.584;2023-02-03T06:12:44;-9.10;99.90
43143;DHT22;28750;59.842;17.584;2023-02-03T06:15:10;-9.00;99.90
43143;DHT22;28750;59.842;17.584;2023-02-03T06:17:37;-8.90;99.90
43143;DHT22;28750;59.842;17.584;2023-02-03T06:20:06;-9.10;99.90
43143;DHT22;28750;59.842;17.584;2023-02-03T06:22:34;-9.10;99.90
43143;DHT22;28750;59.842;17.584;2023-02-03T06:25:01;-9.20;99.90
43143;DHT22;28750;59.842;17.584;2023-02-03T06:27:28;-9.10;99.90
43143;DHT22;28750;59.842;17.584;2023-02-03T06:29:55;-9.20;99.90
43143;DHT22;28750;59.842;17.584;2023-02-03T06:32:22;-9.20;1.00
43143;DHT22;28750;59.842;17.584;2023-02-03T06:34:49;-9.00;1.00
43143;DHT22;28750;59.842;17.584;2023-02-03T06:37:16;-9.10;1.00
43143;DHT22;28750;59.842;17.584;2023-02-03T06:39:43;-9.10;1.00
43143;DHT22;28750;59.842;17.584;2023-02-03T06:42:11;-9.10;1.00
43143;DHT22;28750;59.842;17.584;2023-02-03T06:44:38;-8.90;23.00
43143;DHT22;28750;59.842;17.584;2023-02-03T06:47:05;-8.90;5.30
43143;DHT22;28750;59.842;17.584;2023-02-03T06:49:31;-8.80;42.70
43143;DHT22;28750;59.842;17.584;2023-02-03T06:51:58;-8.80;50.00
43143;DHT22;28750;59.842;17.584;2023-02-03T06:54:25;-8.90;55.50
43143;DHT22;28750;59.842;17.584;2023-02-03T06:56:52;-8.80;91.20
43143;DHT22;28750;59.842;17.584;2023-02-03T06:59:19;-8.90;22.90
43143;DHT22;28750;59.842;17.584;2023-02-03T07:01:46;-9.10;1.00
43143;DHT22;28750;59.842;17.584;2023-02-03T07:04:13;-9.10;1.00
43143;DHT22;28750;59.842;17.584;2023-02-03T07:06:40;-8.90;1.00
43143;DHT22;28750;59.842;17.584;2023-02-03T07:09:07;-8.80;8.90
43143;DHT22;28750;59.842;17.584;2023-02-03T07:11:33;-8.70;28.90
43143;DHT22;28750;59.842;17.584;2023-02-03T07:14:00;-8.60;50.70
43143;DHT22;28750;59.842;17.584;2023-02-03T07:16:28;-8.50;66.50
43143;DHT22;28750;59.842;17.584;2023-02-03T07:18:55;-8.60;17.90
43143;DHT22;28750;59.842;17.584;2023-02-03T07:21:22;-8.70;1.00
43143;DHT22;28750;59.842;17.584;2023-02-03T07:23:49;-8.60;1.00
43143;DHT22;28750;59.842;17.584;2023-02-03T07:26:17;-8.70;1.00
43143;DHT22;28750;59.842;17.584;2023-02-03T07:28:47;-8.60;1.00
43143;DHT22;28750;59.842;17.584;2023-02-03T07:31:14;-8.60;1.00
43143;DHT22;28750;59.842;17.584;2023-02-03T07:33:41;-8.60;1.00
43143;DHT22;28750;59.842;17.584;2023-02-03T07:36:09;-8.50;1.00
43143;DHT22;28750;59.842;17.584;2023-02-03T07:38:36;-8.50;1.00
43143;DHT22;28750;59.842;17.584;2023-02-03T07:41:05;-8.40;1.00
43143;DHT22;28750;59.842;17.584;2023-02-03T07:43:32;-8.60;1.00
43143;DHT22;28750;59.842;17.584;2023-02-03T07:45:59;-8.60;1.00
43143;DHT22;28750;59.842;17.584;2023-02-03T07:48:27;-8.60;1.00
43143;DHT22;28750;59.842;17.584;2023-02-03T07:50:53;-8.60;1.00
43143;DHT22;28750;59.842;17.584;2023-02-03T07:53:21;-8.50;1.00
43143;DHT22;28750;59.842;17.584;2023-02-03T07:55:48;-8.40;1.00
43143;DHT22;28750;59.842;17.584;2023-02-03T07:58:15;-8.40;1.00
43143;DHT22;28750;59.842;17.584;2023-02-03T08:00:42;-8.30;1.00
43143;DHT22;28750;59.842;17.584;2023-02-03T08:03:09;-8.30;1.00
43143;DHT22;28750;59.842;17.584;2023-02-03T08:05:36;-8.30;1.00
43143;DHT22;28750;59.842;17.584;2023-02-03T08:08:03;-8.30;1.00
43143;DHT22;28750;59.842;17.584;2023-02-03T08:10:30;-8.20;1.00
43143;DHT22;28750;59.842;17.584;2023-02-03T08:12:57;-8.20;1.00
43143;DHT22;28750;59.842;17.584;2023-02-03T08:15:24;-8.00;1.00
43143;DHT22;28750;59.842;17.584;2023-02-03T08:17:51;-8.00;1.00
43143;DHT22;28750;59.842;17.584;2023-02-03T08:20:18;-8.00;1.00
43143;DHT22;28750;59.842;17.584;2023-02-03T08:22:45;-7.90;1.00
43143;DHT22;28750;59.842;17.584;2023-02-03T08:25:12;-7.80;1.00
43143;DHT22;28750;59.842;17.584;2023-02-03T08:27:39;-7.70;1.00
43143;DHT22;28750;59.842;17.584;2023-02-03T08:30:09;-7.60;1.00
43143;DHT22;28750;59.842;17.584;2023-02-03T08:32:37;-7.50;1.00
43143;DHT22;28750;59.842;17.584;2023-02-03T08:35:04;-7.40;1.00
43143;DHT22;28750;59.842;17.584;2023-02-03T08:37:31;-7.30;1.00
43143;DHT22;28750;59.842;17.584;2023-02-03T08:39:58;-7.20;1.00
43143;DHT22;28750;59.842;17.584;2023-02-03T08:42:26;-7.10;1.00
43143;DHT22;28750;59.842;17.584;2023-02-03T08:44:53;-7.00;1.00
43143;DHT22;28750;59.842;17.584;2023-02-03T08:47:21;-6.80;1.00
43143;DHT22;28750;59.842;17.584;2023-02-03T08:49:48;-6.70;1.00
43143;DHT22;28750;59.842;17.584;2023-02-03T08:52:15;-6.50;1.00
43143;DHT22;28750;59.842;17.584;2023-02-03T08:54:42;-6.50;1.00
43143;DHT22;28750;59.842;17.584;2023-02-03T08:57:09;-6.40;1.00
43143;DHT22;28750;59.842;17.584;2023-02-03T08:59:41;-6.10;1.00
43143;DHT22;28750;59.842;17.584;2023-02-03T09:02:13;-6.10;1.00
43143;DHT22;28750;59.842;17.584;2023-02-03T09:04:41;-6.10;1.00
43143;DHT22;28750;59.842;17.584;2023-02-03T09:07:08;-6.30;1.00
43143;DHT22;28750;59.842;17.584;2023-02-03T09:09:36;-6.40;1.00
43143;DHT22;28750;59.842;17.584;2023-02-03T09:12:05;-6.30;99.90
43143;DHT22;28750;59.842;17.584;2023-02-03T09:14:32;-6.40;99.90
43143;DHT22;28750;59.842;17.584;2023-02-03T09:17:00;-6.40;99.90
43143;DHT22;28750;59.842;17.584;2023-02-03T09:19:28;-6.20;99.90
43143;DHT22;28750;59.842;17.584;2023-02-03T09:21:55;-6.20;99.90
43143;DHT22;28750;59.842;17.584;2023-02-03T09:24:22;-6.00;1.00
43143;DHT22;28750;59.842;17.584;2023-02-03T09:26:49;-5.80;1.00
43143;DHT22;28750;59.842;17.584;2023-02-03T09:29:16;-5.80;1.00
43143;DHT22;28750;59.842;17.584;2023-02-03T09:31:43;-5.40;1.00
43143;DHT22;28750;59.842;17.584;2023-02-03T09:34:12;-5.20;1.00
43143;DHT22;28750;59.842;17.584;2023-02-03T09:36:39;-4.80;1.00
43143;DHT22;28750;59.842;17.584;2023-02-03T09:39:06;-4.80;1.00
43143;DHT22;28750;59.842;17.584;2023-02-03T09:47:12;-4.70;99.90
43143;DHT22;28750;59.842;17.584;2023-02-03T09:49:41;-4.70;99.90
43143;DHT22;28750;59.842;17.584;2023-02-03T09:52:18;-4.60;99.90
43143;DHT22;28750;59.842;17.584;2023-02-03T09:55:33;-4.50;1.00
43143;DHT22;28750;59.842;17.584;2023-02-03T09:57:57;-4.50;1.00
43143;DHT22;28750;59.842;17.584;2023-02-03T10:00:55;-4.30;1.00
43143;DHT22;28750;59.842;17.584;2023-02-03T10:03:46;-4.30;1.00
43143;DHT22;28750;59.842;17.584;2023-02-03T10:06:34;-4.30;1.00
43143;DHT22;28750;59.842;17.584;2023-02-03T10:09:33;-4.10;1.00
43143;DHT22;28750;59.842;17.584;2023-02-03T10:12:29;-3.90;35.00
43143;DHT22;28750;59.842;17.584;2023-02-03T10:15:17;-3.90;99.90
43143;DHT22;28750;59.842;17.584;2023-02-03T10:17:51;-3.80;99.90
43143;DHT22;28750;59.842;17.584;2023-02-03T10:20:23;-3.50;99.90
43143;DHT22;28750;59.842;17.584;2023-02-03T10:22:55;-3.30;99.90
43143;DHT22;28750;59.842;17.584;2023-02-03T10:25:42;-3.10;99.90
43143;DHT22;28750;59.842;17.584;2023-02-03T10:28:18;-3.40;7.70
43143;DHT22;28750;59.842;17.584;2023-02-03T10:30:57;-3.40;99.90
43143;DHT22;28750;59.842;17.584;2023-02-03T10:33:27;-3.10;99.90
43143;DHT22;28750;59.842;17.584;2023-02-03T10:36:03;-3.20;43.60
43143;DHT22;28750;59.842;17.584;2023-02-03T10:39:01;-3.10;1.00
43143;DHT22;28750;59.842;17.584;2023-02-03T10:41:30;-3.20;15.60
43143;DHT22;28750;59.842;17.584;2023-02-03T10:43:57;-3.30;99.90
43143;DHT22;28750;59.842;17.584;2023-02-03T10:46:34;-3.30;99.90
43143;DHT22;28750;59.842;17.584;2023-02-03T10:49:01;-3.30;99.90
43143;DHT22;28750;59.842;17.584;2023-02-03T10:54:29;-3.40;99.90
43143;DHT22;28750;59.842;17.584;2023-02-03T10:57:11;-3.20;1.00
43143;DHT22;28750;59.842;17.584;2023-02-03T10:59:45;-3.10;1.00
43143;DHT22;28750;59.842;17.584;2023-02-03T11:02:32;-3.10;1.00
43143;DHT22;28750;59.842;17.584;2023-02-03T11:07:43;-3.10;1.00
43143;DHT22;28750;59.842;17.584;2023-02-03T11:10:31;-3.10;84.90
43143;DHT22;28750;59.842;17.584;2023-02-03T11:13:22;-3.00;99.90
43143;DHT22;28750;59.842;17.584;2023-02-03T11:16:13;-2.90;99.90
43143;DHT22;28750;59.842;17.584;2023-02-03T11:19:19;-2.80;99.90
43143;DHT22;28750;59.842;17.584;2023-02-03T11:21:49;-2.80;99.90
43143;DHT22;28750;59.842;17.584;2023-02-03T11:24:27;-2.60;99.90
43143;DHT22;28750;59.842;17.584;2023-02-03T11:27:04;-2.50;99.90
43143;DHT22;28750;59.842;17.584;2023-02-03T11:30:38;-2.40;99.90
43143;DHT22;28750;59.842;17.584;2023-02-03T11:33:00;-2.30;99.90
43143;DHT22;28750;59.842;17.584;2023-02-03T11:35:29;-2.30;99.90
43143;DHT22;28750;59.842;17.584;2023-02-03T11:38:00;-2.10;99.90
43143;DHT22;28750;59.842;17.584;2023-02-03T11:40:33;-2.10;99.90
43143;DHT22;28750;59.842;17.584;2023-02-03T11:43:04;-2.10;99.90
43143;DHT22;28750;59.842;17.584;2023-02-03T11:45:42;-2.00;99.90
43143;DHT22;28750;59.842;17.584;2023-02-03T12:18:03;-1.60;99.90
43143;DHT22;28750;59.842;17.584;2023-02-03T12:21:02;-1.50;99.90
43143;DHT22;28750;59.842;17.584;2023-02-03T12:24:28;-1.50;99.90
43143;DHT22;28750;59.842;17.584;2023-02-03T12:26:45;-1.60;99.90
43143;DHT22;28750;59.842;17.584;2023-02-03T12:29:28;-1.50;99.90
43143;DHT22;28750;59.842;17.584;2023-02-03T12:32:20;-1.50;99.90
43143;DHT22;28750;59.842;17.584;2023-02-03T12:40:43;-1.40;99.90
43143;DHT22;28750;59.842;17.584;2023-02-03T12:43:36;-1.40;99.90
43143;DHT22;28750;59.842;17.584;2023-02-03T12:46:29;-1.40;99.90
43143;DHT22;28750;59.842;17.584;2023-02-03T12:52:39;-1.40;99.90
43143;DHT22;28750;59.842;17.584;2023-02-03T12:57:49;-1.40;99.90
43143;DHT22;28750;59.842;17.584;2023-02-03T13:02:56;-1.40;99.90
43143;DHT22;28750;59.842;17.584;2023-02-03T13:05:41;-1.40;99.90
43143;DHT22;28750;59.842;17.584;2023-02-03T13:08:43;-1.30;99.90
43143;DHT22;28750;59.842;17.584;2023-02-03T13:11:35;-1.40;99.90
43143;DHT22;28750;59.842;17.584;2023-02-03T13:14:22;-1.40;99.90
43143;DHT22;28750;59.842;17.584;2023-02-03T13:16:59;-1.40;99.90
43143;DHT22;28750;59.842;17.584;2023-02-03T13:19:43;-1.40;99.90
43143;DHT22;28750;59.842;17.584;2023-02-03T13:22:13;-1.30;99.90
43143;DHT22;28750;59.842;17.584;2023-02-03T13:24:45;-1.40;99.90
43143;DHT22;28750;59.842;17.584;2023-02-03T13:35:48;-1.60;99.90
43143;DHT22;28750;59.842;17.584;2023-02-03T13:41:28;-1.70;99.90
43143;DHT22;28750;59.842;17.584;2023-02-03T13:43:58;-1.70;99.90
43143;DHT22;28750;59.842;17.584;2023-02-03T13:46:30;-1.70;99.90
43143;DHT22;28750;59.842;17.584;2023-02-03T13:49:00;-1.70;99.90
43143;DHT22;28750;59.842;17.584;2023-02-03T13:51:44;-1.70;99.90
43143;DHT22;28750;59.842;17.584;2023-02-03T13:54:27;-1.80;99.90
43143;DHT22;28750;59.842;17.584;2023-02-03T13:57:02;-1.80;99.90
43143;DHT22;28750;59.842;17.584;2023-02-03T13:59:43;-1.70;99.90
43143;DHT22;28750;59.842;17.584;2023-02-03T14:07:35;-1.70;99.90
43143;DHT22;28750;59.842;17.584;2023-02-03T14:15:28;-1.80;99.90
43143;DHT22;28750;59.842;17.584;2023-02-03T14:17:58;-1.70;99.90
43143;DHT22;28750;59.842;17.584;2023-02-03T14:23:04;-1.80;99.90
43143;DHT22;28750;59.842;17.584;2023-02-03T14:25:56;-1.80;99.90
43143;DHT22;28750;59.842;17.584;2023-02-03T14:28:41;-1.80;99.90
43143;DHT22;28750;59.842;17.584;2023-02-03T14:31:17;-1.90;99.90
43143;DHT22;28750;59.842;17.584;2023-02-03T14:34:08;-2.00;99.90
43143;DHT22;28750;59.842;17.584;2023-02-03T14:36:48;-2.10;99.90
43143;DHT22;28750;59.842;17.584;2023-02-03T14:50:37;-2.20;99.90
43143;DHT22;28750;59.842;17.584;2023-02-03T14:58:17;-2.00;99.90
43143;DHT22;28750;59.842;17.584;2023-02-03T15:00:47;-1.70;99.90
43143;DHT22;28750;59.842;17.584;2023-02-03T15:03:19;-1.70;99.90
43143;DHT22;28750;59.842;17.584;2023-02-03T15:05:52;-1.80;99.90
43143;DHT22;28750;59.842;17.584;2023-02-03T15:08:43;-1.90;99.90
43143;DHT22;28750;59.842;17.584;2023-02-03T15:11:31;-2.00;99.90
43143;DHT22;28750;59.842;17.584;2023-02-03T15:14:24;-2.00;99.90
43143;DHT22;28750;59.842;17.584;2023-02-03T15:17:12;-2.00;99.90
43143;DHT22;28750;59.842;17.584;2023-02-03T15:19:41;-2.00;99.90
43143;DHT22;28750;59.842;17.584;2023-02-03T15:24:51;-2.00;99.90
43143;DHT22;28750;59.842;17.584;2023-02-03T15:27:21;-1.90;99.90
43143;DHT22;28750;59.842;17.584;2023-02-03T15:29:49;-1.90;99.90
43143;DHT22;28750;59.842;17.584;2023-02-03T15:32:44;-1.80;99.90
43143;DHT22;28750;59.842;17.584;2023-02-03T15:35:16;-1.80;99.90
43143;DHT22;28750;59.842;17.584;2023-02-03T15:37:52;-1.80;99.90
43143;DHT22;28750;59.842;17.584;2023-02-03T15:40:22;-1.80;99.90
43143;DHT22;28750;59.842;17.584;2023-02-03T15:48:40;-1.70;99.90
43143;DHT22;28750;59.842;17.584;2023-02-03T15:51:18;-1.70;99.90
43143;DHT22;28750;59.842;17.584;2023-02-03T15:54:03;-1.60;99.90
43143;DHT22;28750;59.842;17.584;2023-02-03T15:56:49;-1.60;1.00
43143;DHT22;28750;59.842;17.584;2023-02-03T15:59:31;-1.70;99.90
43143;DHT22;28750;59.842;17.584;2023-02-03T16:04:44;-1.60;99.90
43143;DHT22;28750;59.842;17.584;2023-02-03T16:07:32;-1.60;1.00
43143;DHT22;28750;59.842;17.584;2023-02-03T16:09:59;-1.60;1.00
43143;DHT22;28750;59.842;17.584;2023-02-03T16:12:28;-1.70;1.00
43143;DHT22;28750;59.842;17.584;2023-02-03T16:14:57;-1.60;99.90
43143;DHT22;28750;59.842;17.584;2023-02-03T16:17:31;-1.60;99.90
43143;DHT22;28750;59.842;17.584;2023-02-03T16:22:46;-1.60;99.90
43143;DHT22;28750;59.842;17.584;2023-02-03T16:25:30;-1.60;99.90
43143;DHT22;28750;59.842;17.584;2023-02-03T16:28:18;-1.60;99.90
43143;DHT22;28750;59.842;17.584;2023-02-03T16:31:14;-1.60;52.40
43143;DHT22;28750;59.842;17.584;2023-02-03T16:34:01;-1.60;99.90
43143;DHT22;28750;59.842;17.584;2023-02-03T16:36:45;-1.60;99.90
43143;DHT22;28750;59.842;17.584;2023-02-03T16:39:29;-1.60;66.40
43143;DHT22;28750;59.842;17.584;2023-02-03T16:42:19;-1.60;99.90
43143;DHT22;28750;59.842;17.584;2023-02-03T16:45:12;-1.60;99.90
43143;DHT22;28750;59.842;17.584;2023-02-03T16:47:56;-1.60;99.90
43143;DHT22;28750;59.842;17.584;2023-02-03T16:50:42;-1.60;99.90
43143;DHT22;28750;59.842;17.584;2023-02-03T16:53:29;-1.60;99.90
43143;DHT22;28750;59.842;17.584;2023-02-03T16:55:59;-1.70;99.90
43143;DHT22;28750;59.842;17.584;2023-02-03T16:58:26;-1.60;99.90
43143;DHT22;28750;59.842;17.584;2023-02-03T17:00:53;-1.60;99.90
43143;DHT22;28750;59.842;17.584;2023-02-03T17:03:23;-1.60;99.90
43143;DHT22;28750;59.842;17.584;2023-02-03T17:05:51;-1.60;99.90
43143;DHT22;28750;59.842;17.584;2023-02-03T17:08:20;-1.60;99.90
43143;DHT22;28750;59.842;17.584;2023-02-03T17:10:47;-1.60;99.90
43143;DHT22;28750;59.842;17.584;2023-02-03T17:13:15;-1.60;67.50
43143;DHT22;28750;59.842;17.584;2023-02-03T17:15:45;-1.60;20.10
43143;DHT22;28750;59.842;17.584;2023-02-03T17:18:13;-1.60;1.00
43143;DHT22;28750;59.842;17.584;2023-02-03T17:20:41;-1.70;1.00
43143;DHT22;28750;59.842;17.584;2023-02-03T17:23:08;-1.70;8.10
43143;DHT22;28750;59.842;17.584;2023-02-03T17:25:36;-1.70;30.00
43143;DHT22;28750;59.842;17.584;2023-02-03T17:28:07;-1.70;1.00
43143;DHT22;28750;59.842;17.584;2023-02-03T17:30:35;-1.70;1.00
43143;DHT22;28750;59.842;17.584;2023-02-03T17:33:05;-1.70;99.90
43143;DHT22;28750;59.842;17.584;2023-02-03T17:35:41;-1.70;99.90
43143;DHT22;28750;59.842;17.584;2023-02-03T17:38:10;-1.70;99.90
43143;DHT22;28750;59.842;17.584;2023-02-03T17:40:41;-1.70;99.90
43143;DHT22;28750;59.842;17.584;2023-02-03T17:43:08;-1.60;99.90
43143;DHT22;28750;59.842;17.584;2023-02-03T17:45:40;-1.60;99.90
43143;DHT22;28750;59.842;17.584;2023-02-03T17:48:07;-1.60;99.90
43143;DHT22;28750;59.842;17.584;2023-02-03T17:50:34;-1.60;99.90
43143;DHT22;28750;59.842;17.584;2023-02-03T17:53:01;-1.70;99.90
43143;DHT22;28750;59.842;17.584;2023-02-03T17:55:29;-1.70;99.90
43143;DHT22;28750;59.842;17.584;2023-02-03T17:57:56;-1.70;99.90
43143;DHT22;28750;59.842;17.584;2023-02-03T18:00:26;-1.70;99.90
43143;DHT22;28750;59.842;17.584;2023-02-03T18:02:53;-1.70;99.90
43143;DHT22;28750;59.842;17.584;2023-02-03T18:05:20;-1.70;99.90
43143;DHT22;28750;59.842;17.584;2023-02-03T18:07:57;-1.80;99.90
43143;DHT22;28750;59.842;17.584;2023-02-03T18:10:24;-1.80;99.90
43143;DHT22;28750;59.842;17.584;2023-02-03T18:12:50;-1.80;99.90